Gujranwala Weather



Gujranwala's Current Weather

Temprature 24o scattered clouds

scattered clouds

Rain: 0 %

Min Temprature24o
Max Temprature24o
Humidity64
Wind Speed3.05 m/h
Sun Rise06:08:20
Sun Set17:28:21
Current Time: 18-Oct-2019 16:57:29
Lat/Lon: 32.15, 74.19




Gujranwala's Geo Location



Gujranwala's Weather Forecast

Time Overall Temp Min Temp Max Temp Humidity Wind Speed Rain
18-Oct-2019 (Fri)
17:00:00 clear sky 23.210 23.210 30.802 26 3.05 m/h 0 %
20:00:00 clear sky 19.730 19.730 25.423 37 2.28 m/h 0 %
23:00:00 light rain 19.700 19.700 23.499 47 2.12 m/h 63 %
19-Oct-2019 (Sat)
02:00:00 overcast clouds 19.750 19.750 21.648 52 3.27 m/h 0 %
05:00:00 broken clouds 21.038 21.038 21.038 50 3.48 m/h 0 %
08:00:00 clear sky 24.402 24.402 24.402 40 1.78 m/h 0 %
11:00:00 clear sky 31.830 31.830 31.830 22 3.38 m/h 0 %
14:00:00 clear sky 34.313 34.313 34.313 14 3.18 m/h 0 %
17:00:00 clear sky 30.764 30.764 30.764 17 2.74 m/h 0 %
20:00:00 clear sky 25.001 25.001 25.001 27 2.95 m/h 0 %
23:00:00 clear sky 22.714 22.714 22.714 33 2.35 m/h 0 %
20-Oct-2019 (Sun)
02:00:00 clear sky 21.117 21.117 21.117 36 1.5 m/h 0 %
05:00:00 clear sky 19.918 19.918 19.918 38 1.36 m/h 0 %
08:00:00 clear sky 24.434 24.434 24.434 29 1.64 m/h 0 %
11:00:00 few clouds 31.990 31.990 31.990 17 1.97 m/h 0 %
14:00:00 overcast clouds 33.603 33.603 33.603 13 3.23 m/h 0 %
17:00:00 overcast clouds 29.891 29.891 29.891 17 1.77 m/h 0 %
20:00:00 overcast clouds 25.113 25.113 25.113 24 1.46 m/h 0 %
23:00:00 overcast clouds 23.419 23.419 23.419 27 1.73 m/h 0 %
21-Oct-2019 (Mon)
02:00:00 clear sky 21.316 21.316 21.316 30 1.69 m/h 0 %
05:00:00 clear sky 19.587 19.587 19.587 34 0.18 m/h 0 %
08:00:00 clear sky 24.422 24.422 24.422 26 1.31 m/h 0 %
11:00:00 clear sky 32.045 32.045 32.045 16 1.69 m/h 0 %
14:00:00 clear sky 34.068 34.068 34.068 12 3.69 m/h 0 %
17:00:00 clear sky 29.944 29.944 29.944 15 1.76 m/h 0 %
20:00:00 broken clouds 24.783 24.783 24.783 21 1.22 m/h 0 %
23:00:00 scattered clouds 22.854 22.854 22.854 24 2.4 m/h 0 %
22-Oct-2019 (Tue)
02:00:00 clear sky 21.202 21.202 21.202 28 1.74 m/h 0 %
05:00:00 clear sky 19.156 19.156 19.156 32 0.19 m/h 0 %
08:00:00 clear sky 24.301 24.301 24.301 24 1 m/h 0 %
11:00:00 clear sky 33.305 33.305 33.305 15 0.9 m/h 0 %
14:00:00 clear sky 34.669 34.669 34.669 12 2.83 m/h 0 %
17:00:00 clear sky 30.569 30.569 30.569 15 1.76 m/h 0 %
20:00:00 clear sky 25.350 25.350 25.350 20 1.66 m/h 0 %
23:00:00 few clouds 23.412 23.412 23.412 26 2.71 m/h 0 %
23-Oct-2019 (Wed)
02:00:00 overcast clouds 21.035 21.035 21.035 29 1.59 m/h 0 %
05:00:00 overcast clouds 20.188 20.188 20.188 34 2.57 m/h 0 %
08:00:00 scattered clouds 23.983 23.983 23.983 29 2.96 m/h 0 %
11:00:00 broken clouds 32.054 32.054 32.054 16 3.63 m/h 0 %
14:00:00 overcast clouds 34.911 34.911 34.911 11 3.06 m/h 0 %

Famous Cities (61)